sensor_id;sensor_type;location;lat;lon;timestamp;P1;durP1;ratioP1;P2;durP2;ratioP2
14096;SDS011;7125;48.106;11.544;2023-05-07T00:01:33;7.10;;;5.20;;
14096;SDS011;7125;48.106;11.544;2023-05-07T00:04:00;6.80;;;6.17;;
14096;SDS011;7125;48.106;11.544;2023-05-07T00:06:28;10.37;;;7.03;;
14096;SDS011;7125;48.106;11.544;2023-05-07T00:08:56;6.70;;;6.10;;
14096;SDS011;7125;48.106;11.544;2023-05-07T00:11:24;6.50;;;6.00;;
14096;SDS011;7125;48.106;11.544;2023-05-07T00:13:56;7.20;;;6.50;;
14096;SDS011;7125;48.106;11.544;2023-05-07T00:16:23;9.63;;;6.63;;
14096;SDS011;7125;48.106;11.544;2023-05-07T00:18:52;6.87;;;6.20;;
14096;SDS011;7125;48.106;11.544;2023-05-07T00:21:19;8.13;;;6.30;;
14096;SDS011;7125;48.106;11.544;2023-05-07T00:23:47;6.20;;;5.60;;
14096;SDS011;7125;48.106;11.544;2023-05-07T00:26:15;8.67;;;6.63;;
14096;SDS011;7125;48.106;11.544;2023-05-07T00:28:45;6.53;;;5.97;;
14096;SDS011;7125;48.106;11.544;2023-05-07T00:37:40;8.23;;;6.33;;
14096;SDS011;7125;48.106;11.544;2023-05-07T00:40:21;8.60;;;6.17;;
14096;SDS011;7125;48.106;11.544;2023-05-07T00:42:50;6.70;;;6.20;;
14096;SDS011;7125;48.106;11.544;2023-05-07T00:45:22;9.37;;;6.63;;
14096;SDS011;7125;48.106;11.544;2023-05-07T00:47:53;9.80;;;7.40;;
14096;SDS011;7125;48.106;11.544;2023-05-07T00:50:23;6.90;;;6.40;;
14096;SDS011;7125;48.106;11.544;2023-05-07T00:55:49;8.67;;;6.23;;
14096;SDS011;7125;48.106;11.544;2023-05-07T00:58:17;6.53;;;5.97;;
14096;SDS011;7125;48.106;11.544;2023-05-07T01:00:48;6.60;;;5.73;;
14096;SDS011;7125;48.106;11.544;2023-05-07T01:03:17;10.37;;;5.70;;
14096;SDS011;7125;48.106;11.544;2023-05-07T01:05:51;7.80;;;5.90;;
14096;SDS011;7125;48.106;11.544;2023-05-07T01:14:04;6.67;;;5.97;;
14096;SDS011;7125;48.106;11.544;2023-05-07T01:16:34;6.70;;;6.10;;
14096;SDS011;7125;48.106;11.544;2023-05-07T01:19:01;6.40;;;5.80;;
14096;SDS011;7125;48.106;11.544;2023-05-07T01:21:29;7.27;;;5.87;;
14096;SDS011;7125;48.106;11.544;2023-05-07T01:24:02;11.97;;;5.67;;
14096;SDS011;7125;48.106;11.544;2023-05-07T01:26:31;6.30;;;5.80;;
14096;SDS011;7125;48.106;11.544;2023-05-07T01:28:59;6.33;;;5.73;;
14096;SDS011;7125;48.106;11.544;2023-05-07T01:31:26;7.83;;;6.27;;
14096;SDS011;7125;48.106;11.544;2023-05-07T01:33:54;6.50;;;5.93;;
14096;SDS011;7125;48.106;11.544;2023-05-07T01:36:22;6.90;;;6.20;;
14096;SDS011;7125;48.106;11.544;2023-05-07T01:38:52;6.37;;;5.87;;
14096;SDS011;7125;48.106;11.544;2023-05-07T01:41:23;6.73;;;5.20;;
14096;SDS011;7125;48.106;11.544;2023-05-07T01:43:52;6.13;;;5.53;;
14096;SDS011;7125;48.106;11.544;2023-05-07T01:46:21;6.73;;;6.10;;
14096;SDS011;7125;48.106;11.544;2023-05-07T01:48:49;5.60;;;5.10;;
14096;SDS011;7125;48.106;11.544;2023-05-07T01:51:17;7.77;;;5.67;;
14096;SDS011;7125;48.106;11.544;2023-05-07T01:53:46;6.00;;;5.43;;
14096;SDS011;7125;48.106;11.544;2023-05-07T01:56:16;6.50;;;5.90;;
14096;SDS011;7125;48.106;11.544;2023-05-07T01:58:48;7.00;;;5.40;;
14096;SDS011;7125;48.106;11.544;2023-05-07T02:01:17;6.13;;;5.53;;
14096;SDS011;7125;48.106;11.544;2023-05-07T02:03:46;5.77;;;5.00;;
14096;SDS011;7125;48.106;11.544;2023-05-07T02:06:21;6.37;;;5.67;;
14096;SDS011;7125;48.106;11.544;2023-05-07T02:08:49;5.87;;;5.20;;
14096;SDS011;7125;48.106;11.544;2023-05-07T02:11:19;6.17;;;5.73;;
14096;SDS011;7125;48.106;11.544;2023-05-07T02:13:49;8.63;;;6.40;;
14096;SDS011;7125;48.106;11.544;2023-05-07T02:16:16;9.23;;;5.70;;
14096;SDS011;7125;48.106;11.544;2023-05-07T02:18:46;5.73;;;5.23;;
14096;SDS011;7125;48.106;11.544;2023-05-07T02:21:13;14.90;;;6.27;;
14096;SDS011;7125;48.106;11.544;2023-05-07T02:23:42;6.50;;;5.80;;
14096;SDS011;7125;48.106;11.544;2023-05-07T02:26:11;5.83;;;5.33;;
14096;SDS011;7125;48.106;11.544;2023-05-07T02:28:38;5.37;;;4.87;;
14096;SDS011;7125;48.106;11.544;2023-05-07T02:31:07;9.87;;;5.37;;
14096;SDS011;7125;48.106;11.544;2023-05-07T02:33:35;5.23;;;4.80;;
14096;SDS011;7125;48.106;11.544;2023-05-07T02:36:05;6.53;;;5.33;;
14096;SDS011;7125;48.106;11.544;2023-05-07T02:38:34;6.53;;;5.93;;
14096;SDS011;7125;48.106;11.544;2023-05-07T09:34:57;3.83;;;2.20;;
14096;SDS011;7125;48.106;11.544;2023-05-07T09:37:26;1.52;;;1.42;;
14096;SDS011;7125;48.106;11.544;2023-05-07T09:39:54;5.38;;;3.05;;
14096;SDS011;7125;48.106;11.544;2023-05-07T09:42:27;4.57;;;2.30;;
14096;SDS011;7125;48.106;11.544;2023-05-07T09:44:59;3.00;;;1.95;;
14096;SDS011;7125;48.106;11.544;2023-05-07T09:47:32;1.42;;;1.33;;
14096;SDS011;7125;48.106;11.544;2023-05-07T09:50:08;1.80;;;1.65;;
14096;SDS011;7125;48.106;11.544;2023-05-07T09:52:38;1.90;;;1.80;;
14096;SDS011;7125;48.106;11.544;2023-05-07T09:55:09;2.00;;;1.77;;
14096;SDS011;7125;48.106;11.544;2023-05-07T09:57:38;4.22;;;1.90;;
14096;SDS011;7125;48.106;11.544;2023-05-07T10:00:08;3.38;;;2.13;;
14096;SDS011;7125;48.106;11.544;2023-05-07T10:02:46;2.42;;;1.88;;
14096;SDS011;7125;48.106;11.544;2023-05-07T10:05:24;1.77;;;1.67;;
14096;SDS011;7125;48.106;11.544;2023-05-07T10:07:56;2.10;;;1.60;;
14096;SDS011;7125;48.106;11.544;2023-05-07T10:10:24;1.75;;;1.50;;
14096;SDS011;7125;48.106;11.544;2023-05-07T10:12:52;2.88;;;1.48;;
14096;SDS011;7125;48.106;11.544;2023-05-07T10:15:28;2.05;;;1.92;;
14096;SDS011;7125;48.106;11.544;2023-05-07T10:17:57;2.28;;;2.08;;
14096;SDS011;7125;48.106;11.544;2023-05-07T10:20:27;2.13;;;2.03;;
14096;SDS011;7125;48.106;11.544;2023-05-07T10:22:59;4.53;;;2.10;;
14096;SDS011;7125;48.106;11.544;2023-05-07T10:25:38;1.60;;;1.50;;
14096;SDS011;7125;48.106;11.544;2023-05-07T10:28:13;2.50;;;2.05;;
14096;SDS011;7125;48.106;11.544;2023-05-07T10:30:47;3.53;;;1.80;;
14096;SDS011;7125;48.106;11.544;2023-05-07T10:33:28;2.20;;;2.00;;
14096;SDS011;7125;48.106;11.544;2023-05-07T10:36:02;1.92;;;1.50;;
14096;SDS011;7125;48.106;11.544;2023-05-07T10:38:33;6.35;;;3.92;;
14096;SDS011;7125;48.106;11.544;2023-05-07T10:41:01;2.95;;;2.25;;
14096;SDS011;7125;48.106;11.544;2023-05-07T10:43:40;2.92;;;2.38;;
14096;SDS011;7125;48.106;11.544;2023-05-07T10:46:28;4.43;;;2.00;;
14096;SDS011;7125;48.106;11.544;2023-05-07T10:49:18;1.92;;;1.73;;
14096;SDS011;7125;48.106;11.544;2023-05-07T10:52:12;2.03;;;1.83;;
14096;SDS011;7125;48.106;11.544;2023-05-07T10:54:47;2.53;;;1.67;;
14096;SDS011;7125;48.106;11.544;2023-05-07T11:01:06;1.65;;;1.55;;
14096;SDS011;7125;48.106;11.544;2023-05-07T11:06:40;3.45;;;1.40;;
14096;SDS011;7125;48.106;11.544;2023-05-07T11:09:11;2.20;;;2.00;;
14096;SDS011;7125;48.106;11.544;2023-05-07T11:12:04;1.58;;;1.48;;
14096;SDS011;7125;48.106;11.544;2023-05-07T11:14:57;1.42;;;1.10;;
14096;SDS011;7125;48.106;11.544;2023-05-07T11:17:53;5.40;;;1.83;;
14096;SDS011;7125;48.106;11.544;2023-05-07T11:20:47;3.70;;;1.85;;
14096;SDS011;7125;48.106;11.544;2023-05-07T11:26:51;3.50;;;2.00;;
14096;SDS011;7125;48.106;11.544;2023-05-07T11:29:21;3.35;;;2.60;;
14096;SDS011;7125;48.106;11.544;2023-05-07T11:31:55;2.35;;;2.05;;
14096;SDS011;7125;48.106;11.544;2023-05-07T11:34:29;3.70;;;1.70;;
14096;SDS011;7125;48.106;11.544;2023-05-07T11:36:58;9.43;;;2.13;;
14096;SDS011;7125;48.106;11.544;2023-05-07T11:40:01;2.63;;;2.42;;
14096;SDS011;7125;48.106;11.544;2023-05-07T11:42:32;2.70;;;2.50;;
14096;SDS011;7125;48.106;11.544;2023-05-07T11:45:04;4.63;;;2.83;;
14096;SDS011;7125;48.106;11.544;2023-05-07T11:47:33;3.50;;;2.13;;
14096;SDS011;7125;48.106;11.544;2023-05-07T11:50:08;2.83;;;2.58;;
14096;SDS011;7125;48.106;11.544;2023-05-07T11:52:38;2.42;;;1.90;;
14096;SDS011;7125;48.106;11.544;2023-05-07T11:55:21;2.58;;;2.38;;
14096;SDS011;7125;48.106;11.544;2023-05-07T11:57:53;2.60;;;2.40;;
14096;SDS011;7125;48.106;11.544;2023-05-07T12:00:22;7.03;;;2.50;;
14096;SDS011;7125;48.106;11.544;2023-05-07T12:02:49;3.70;;;2.58;;
14096;SDS011;7125;48.106;11.544;2023-05-07T12:05:18;3.45;;;3.00;;
14096;SDS011;7125;48.106;11.544;2023-05-07T12:07:46;2.40;;;2.22;;
14096;SDS011;7125;48.106;11.544;2023-05-07T12:10:17;3.92;;;2.53;;
14096;SDS011;7125;48.106;11.544;2023-05-07T12:12:54;4.97;;;3.33;;
14096;SDS011;7125;48.106;11.544;2023-05-07T12:15:27;11.15;;;2.97;;
14096;SDS011;7125;48.106;11.544;2023-05-07T12:18:00;2.53;;;2.33;;
14096;SDS011;7125;48.106;11.544;2023-05-07T12:20:30;3.15;;;2.85;;
14096;SDS011;7125;48.106;11.544;2023-05-07T12:22:58;3.45;;;2.70;;
14096;SDS011;7125;48.106;11.544;2023-05-07T12:25:26;2.85;;;2.40;;
14096;SDS011;7125;48.106;11.544;2023-05-07T12:28:08;3.53;;;2.33;;
14096;SDS011;7125;48.106;11.544;2023-05-07T12:30:41;3.75;;;2.80;;
14096;SDS011;7125;48.106;11.544;2023-05-07T12:33:09;4.18;;;3.30;;
14096;SDS011;7125;48.106;11.544;2023-05-07T12:35:39;4.25;;;2.80;;
14096;SDS011;7125;48.106;11.544;2023-05-07T12:38:08;3.95;;;3.05;;
14096;SDS011;7125;48.106;11.544;2023-05-07T12:40:37;2.78;;;2.55;;
14096;SDS011;7125;48.106;11.544;2023-05-07T12:43:11;2.90;;;2.67;;
14096;SDS011;7125;48.106;11.544;2023-05-07T12:45:44;2.42;;;2.20;;
14096;SDS011;7125;48.106;11.544;2023-05-07T12:48:28;3.03;;;2.72;;
14096;SDS011;7125;48.106;11.544;2023-05-07T12:50:57;5.05;;;3.33;;
14096;SDS011;7125;48.106;11.544;2023-05-07T12:53:26;2.35;;;2.15;;
14096;SDS011;7125;48.106;11.544;2023-05-07T12:55:58;4.50;;;2.35;;
14096;SDS011;7125;48.106;11.544;2023-05-07T12:58:29;2.65;;;2.45;;
14096;SDS011;7125;48.106;11.544;2023-05-07T13:01:00;4.07;;;3.13;;
14096;SDS011;7125;48.106;11.544;2023-05-07T13:03:37;2.70;;;2.50;;
14096;SDS011;7125;48.106;11.544;2023-05-07T13:06:07;2.53;;;2.33;;
14096;SDS011;7125;48.106;11.544;2023-05-07T13:08:37;2.47;;;2.28;;
14096;SDS011;7125;48.106;11.544;2023-05-07T13:11:10;3.25;;;2.15;;
14096;SDS011;7125;48.106;11.544;2023-05-07T13:13:43;1.83;;;1.70;;
14096;SDS011;7125;48.106;11.544;2023-05-07T13:16:21;2.45;;;2.25;;
14096;SDS011;7125;48.106;11.544;2023-05-07T13:19:02;3.85;;;1.80;;
14096;SDS011;7125;48.106;11.544;2023-05-07T13:21:33;2.17;;;1.45;;
14096;SDS011;7125;48.106;11.544;2023-05-07T13:24:12;2.22;;;2.10;;
14096;SDS011;7125;48.106;11.544;2023-05-07T13:26:40;2.70;;;2.15;;
14096;SDS011;7125;48.106;11.544;2023-05-07T13:29:16;2.38;;;2.17;;
14096;SDS011;7125;48.106;11.544;2023-05-07T13:31:45;3.28;;;1.85;;
14096;SDS011;7125;48.106;11.544;2023-05-07T13:34:19;2.80;;;1.88;;
14096;SDS011;7125;48.106;11.544;2023-05-07T13:37:04;2.25;;;1.77;;
14096;SDS011;7125;48.106;11.544;2023-05-07T13:39:40;2.00;;;1.80;;
14096;SDS011;7125;48.106;11.544;2023-05-07T13:42:10;2.70;;;2.00;;
14096;SDS011;7125;48.106;11.544;2023-05-07T13:44:48;3.42;;;2.20;;
14096;SDS011;7125;48.106;11.544;2023-05-07T13:47:26;3.95;;;1.80;;
14096;SDS011;7125;48.106;11.544;2023-05-07T13:49:56;3.53;;;2.10;;
14096;SDS011;7125;48.106;11.544;2023-05-07T13:52:35;2.70;;;1.77;;
14096;SDS011;7125;48.106;11.544;2023-05-07T13:55:06;2.25;;;2.08;;
14096;SDS011;7125;48.106;11.544;2023-05-07T13:57:35;6.07;;;2.10;;
14096;SDS011;7125;48.106;11.544;2023-05-07T14:00:05;2.22;;;2.00;;
14096;SDS011;7125;48.106;11.544;2023-05-07T14:02:41;3.00;;;1.55;;
14096;SDS011;7125;48.106;11.544;2023-05-07T14:05:09;1.80;;;1.70;;
14096;SDS011;7125;48.106;11.544;2023-05-07T14:07:39;2.20;;;2.08;;
14096;SDS011;7125;48.106;11.544;2023-05-07T14:10:13;1.52;;;1.42;;
14096;SDS011;7125;48.106;11.544;2023-05-07T14:12:41;8.65;;;2.50;;
14096;SDS011;7125;48.106;11.544;2023-05-07T14:15:16;4.85;;;1.80;;
14096;SDS011;7125;48.106;11.544;2023-05-07T14:17:48;3.28;;;2.05;;
14096;SDS011;7125;48.106;11.544;2023-05-07T14:20:24;2.03;;;1.92;;
14096;SDS011;7125;48.106;11.544;2023-05-07T14:23:18;2.35;;;2.15;;
14096;SDS011;7125;48.106;11.544;2023-05-07T14:25:52;1.90;;;1.80;;
14096;SDS011;7125;48.106;11.544;2023-05-07T14:28:23;1.80;;;1.70;;
14096;SDS011;7125;48.106;11.544;2023-05-07T14:30:52;2.10;;;2.00;;
14096;SDS011;7125;48.106;11.544;2023-05-07T14:33:20;1.55;;;1.50;;
14096;SDS011;7125;48.106;11.544;2023-05-07T14:35:47;2.20;;;1.60;;
14096;SDS011;7125;48.106;11.544;2023-05-07T14:38:15;3.88;;;2.22;;
14096;SDS011;7125;48.106;11.544;2023-05-07T14:40:42;3.63;;;1.80;;
14096;SDS011;7125;48.106;11.544;2023-05-07T14:43:13;1.70;;;1.60;;
14096;SDS011;7125;48.106;11.544;2023-05-07T14:45:41;2.60;;;2.13;;
14096;SDS011;7125;48.106;11.544;2023-05-07T14:48:14;1.80;;;1.70;;
14096;SDS011;7125;48.106;11.544;2023-05-07T14:50:46;2.78;;;1.95;;
14096;SDS011;7125;48.106;11.544;2023-05-07T14:53:16;2.17;;;1.92;;
14096;SDS011;7125;48.106;11.544;2023-05-07T16:04:14;3.40;;;2.15;;
14096;SDS011;7125;48.106;11.544;2023-05-07T16:06:46;2.50;;;2.30;;
14096;SDS011;7125;48.106;11.544;2023-05-07T16:09:37;3.45;;;2.58;;
14096;SDS011;7125;48.106;11.544;2023-05-07T16:12:04;2.10;;;1.85;;
14096;SDS011;7125;48.106;11.544;2023-05-07T16:14:34;2.65;;;2.42;;
14096;SDS011;7125;48.106;11.544;2023-05-07T16:17:01;2.10;;;1.83;;
14096;SDS011;7125;48.106;11.544;2023-05-07T16:19:44;4.20;;;2.33;;
14096;SDS011;7125;48.106;11.544;2023-05-07T16:22:20;2.58;;;1.65;;
14096;SDS011;7125;48.106;11.544;2023-05-07T16:24:50;3.95;;;2.30;;
14096;SDS011;7125;48.106;11.544;2023-05-07T16:27:25;2.60;;;2.40;;
14096;SDS011;7125;48.106;11.544;2023-05-07T16:29:52;4.88;;;2.35;;
14096;SDS011;7125;48.106;11.544;2023-05-07T16:32:25;2.65;;;2.33;;
14096;SDS011;7125;48.106;11.544;2023-05-07T16:34:57;2.50;;;2.30;;
14096;SDS011;7125;48.106;11.544;2023-05-07T16:37:31;4.35;;;1.98;;
14096;SDS011;7125;48.106;11.544;2023-05-07T16:40:00;1.65;;;1.55;;
14096;SDS011;7125;48.106;11.544;2023-05-07T16:42:35;3.25;;;1.92;;
14096;SDS011;7125;48.106;11.544;2023-05-07T16:45:02;1.45;;;1.35;;
14096;SDS011;7125;48.106;11.544;2023-05-07T16:47:31;2.75;;;1.73;;
14096;SDS011;7125;48.106;11.544;2023-05-07T16:50:10;2.33;;;2.20;;
14096;SDS011;7125;48.106;11.544;2023-05-07T16:52:52;2.80;;;1.92;;
14096;SDS011;7125;48.106;11.544;2023-05-07T16:55:19;10.65;;;1.98;;
14096;SDS011;7125;48.106;11.544;2023-05-07T16:57:46;3.42;;;1.83;;
14096;SDS011;7125;48.106;11.544;2023-05-07T17:00:16;2.55;;;2.35;;
14096;SDS011;7125;48.106;11.544;2023-05-07T17:02:47;2.65;;;1.48;;
14096;SDS011;7125;48.106;11.544;2023-05-07T17:05:20;6.20;;;2.13;;
14096;SDS011;7125;48.106;11.544;2023-05-07T17:07:47;1.77;;;1.55;;
14096;SDS011;7125;48.106;11.544;2023-05-07T17:10:17;1.67;;;1.58;;
14096;SDS011;7125;48.106;11.544;2023-05-07T17:12:44;1.48;;;1.35;;
14096;SDS011;7125;48.106;11.544;2023-05-07T17:15:28;1.83;;;1.70;;
14096;SDS011;7125;48.106;11.544;2023-05-07T17:18:00;9.13;;;2.15;;
14096;SDS011;7125;48.106;11.544;2023-05-07T17:20:33;2.50;;;2.30;;
14096;SDS011;7125;48.106;11.544;2023-05-07T17:23:00;2.00;;;1.90;;
14096;SDS011;7125;48.106;11.544;2023-05-07T17:25:30;2.22;;;2.03;;
14096;SDS011;7125;48.106;11.544;2023-05-07T17:27:58;1.92;;;1.83;;
14096;SDS011;7125;48.106;11.544;2023-05-07T17:30:25;2.90;;;1.98;;
14096;SDS011;7125;48.106;11.544;2023-05-07T17:32:52;3.88;;;1.90;;
14096;SDS011;7125;48.106;11.544;2023-05-07T17:35:21;2.53;;;2.30;;
14096;SDS011;7125;48.106;11.544;2023-05-07T17:37:55;2.25;;;2.03;;
14096;SDS011;7125;48.106;11.544;2023-05-07T17:40:23;1.70;;;1.60;;
14096;SDS011;7125;48.106;11.544;2023-05-07T17:42:53;2.13;;;2.00;;
14096;SDS011;7125;48.106;11.544;2023-05-07T17:45:31;4.68;;;2.00;;
14096;SDS011;7125;48.106;11.544;2023-05-07T17:47:59;1.92;;;1.83;;
14096;SDS011;7125;48.106;11.544;2023-05-07T17:50:32;2.13;;;1.83;;
14096;SDS011;7125;48.106;11.544;2023-05-07T17:53:08;3.22;;;1.70;;
14096;SDS011;7125;48.106;11.544;2023-05-07T17:55:40;1.98;;;1.88;;
14096;SDS011;7125;48.106;11.544;2023-05-07T17:58:17;2.40;;;2.20;;
14096;SDS011;7125;48.106;11.544;2023-05-07T18:00:47;2.20;;;2.00;;
14096;SDS011;7125;48.106;11.544;2023-05-07T18:03:26;3.70;;;1.90;;
14096;SDS011;7125;48.106;11.544;2023-05-07T18:05:56;2.65;;;1.85;;
14096;SDS011;7125;48.106;11.544;2023-05-07T18:11:27;3.10;;;2.10;;
14096;SDS011;7125;48.106;11.544;2023-05-07T18:14:13;3.05;;;2.05;;
14096;SDS011;7125;48.106;11.544;2023-05-07T18:16:42;3.38;;;1.95;;
14096;SDS011;7125;48.106;11.544;2023-05-07T18:19:14;4.68;;;2.05;;
14096;SDS011;7125;48.106;11.544;2023-05-07T18:21:51;7.75;;;2.35;;
14096;SDS011;7125;48.106;11.544;2023-05-07T18:24:37;2.70;;;2.10;;
14096;SDS011;7125;48.106;11.544;2023-05-07T18:27:06;3.85;;;1.90;;
14096;SDS011;7125;48.106;11.544;2023-05-07T18:29:43;2.25;;;2.00;;
14096;SDS011;7125;48.106;11.544;2023-05-07T18:32:14;3.08;;;2.00;;
14096;SDS011;7125;48.106;11.544;2023-05-07T18:34:43;2.45;;;2.25;;
14096;SDS011;7125;48.106;11.544;2023-05-07T18:37:11;2.63;;;2.42;;
14096;SDS011;7125;48.106;11.544;2023-05-07T18:39:43;4.45;;;1.98;;
14096;SDS011;7125;48.106;11.544;2023-05-07T18:42:17;4.55;;;2.30;;
14096;SDS011;7125;48.106;11.544;2023-05-07T18:44:48;2.78;;;2.28;;
14096;SDS011;7125;48.106;11.544;2023-05-07T18:47:17;2.50;;;2.30;;
14096;SDS011;7125;48.106;11.544;2023-05-07T18:49:48;2.92;;;2.58;;
14096;SDS011;7125;48.106;11.544;2023-05-07T18:52:16;2.83;;;2.53;;
14096;SDS011;7125;48.106;11.544;2023-05-07T18:54:47;2.72;;;2.30;;
14096;SDS011;7125;48.106;11.544;2023-05-07T18:57:14;2.95;;;2.22;;
14096;SDS011;7125;48.106;11.544;2023-05-07T18:59:45;2.45;;;2.22;;
14096;SDS011;7125;48.106;11.544;2023-05-07T19:02:13;2.10;;;1.77;;
14096;SDS011;7125;48.106;11.544;2023-05-07T19:04:41;5.65;;;2.53;;
14096;SDS011;7125;48.106;11.544;2023-05-07T19:07:09;4.35;;;2.75;;
14096;SDS011;7125;48.106;11.544;2023-05-07T19:09:41;5.00;;;2.13;;
14096;SDS011;7125;48.106;11.544;2023-05-07T19:12:10;4.80;;;2.53;;
14096;SDS011;7125;48.106;11.544;2023-05-07T19:14:40;4.10;;;2.17;;
14096;SDS011;7125;48.106;11.544;2023-05-07T19:17:10;3.45;;;2.40;;
14096;SDS011;7125;48.106;11.544;2023-05-07T19:19:47;2.45;;;1.90;;
14096;SDS011;7125;48.106;11.544;2023-05-07T19:22:17;3.05;;;2.08;;
14096;SDS011;7125;48.106;11.544;2023-05-07T19:24:46;2.83;;;2.50;;
14096;SDS011;7125;48.106;11.544;2023-05-07T19:27:24;2.63;;;2.03;;
14096;SDS011;7125;48.106;11.544;2023-05-07T19:29:53;2.15;;;1.95;;
14096;SDS011;7125;48.106;11.544;2023-05-07T19:32:22;2.03;;;1.83;;
14096;SDS011;7125;48.106;11.544;2023-05-07T19:34:52;2.42;;;1.73;;
14096;SDS011;7125;48.106;11.544;2023-05-07T19:37:20;2.33;;;2.13;;
14096;SDS011;7125;48.106;11.544;2023-05-07T19:39:51;3.22;;;2.10;;
14096;SDS011;7125;48.106;11.544;2023-05-07T19:42:21;2.75;;;2.40;;
14096;SDS011;7125;48.106;11.544;2023-05-07T19:44:52;2.72;;;2.10;;
14096;SDS011;7125;48.106;11.544;2023-05-07T19:47:19;2.80;;;2.58;;
14096;SDS011;7125;48.106;11.544;2023-05-07T19:49:50;3.00;;;2.05;;
14096;SDS011;7125;48.106;11.544;2023-05-07T19:52:17;7.75;;;2.58;;
14096;SDS011;7125;48.106;11.544;2023-05-07T19:54:45;3.55;;;2.30;;
14096;SDS011;7125;48.106;11.544;2023-05-07T19:57:16;3.15;;;2.88;;
14096;SDS011;7125;48.106;11.544;2023-05-07T20:00:03;5.68;;;3.05;;
14096;SDS011;7125;48.106;11.544;2023-05-07T20:02:40;3.72;;;3.42;;
14096;SDS011;7125;48.106;11.544;2023-05-07T20:05:12;3.63;;;3.33;;
14096;SDS011;7125;48.106;11.544;2023-05-07T20:07:39;6.03;;;3.95;;
14096;SDS011;7125;48.106;11.544;2023-05-07T20:10:07;4.10;;;3.70;;
14096;SDS011;7125;48.106;11.544;2023-05-07T20:12:35;4.90;;;3.83;;
14096;SDS011;7125;48.106;11.544;2023-05-07T20:15:05;5.78;;;4.05;;
14096;SDS011;7125;48.106;11.544;2023-05-07T20:17:33;8.07;;;3.70;;
14096;SDS011;7125;48.106;11.544;2023-05-07T20:20:01;4.38;;;3.97;;
14096;SDS011;7125;48.106;11.544;2023-05-07T20:22:28;4.93;;;4.47;;
14096;SDS011;7125;48.106;11.544;2023-05-07T20:24:56;5.38;;;4.93;;
14096;SDS011;7125;48.106;11.544;2023-05-07T20:27:24;5.30;;;4.78;;
14096;SDS011;7125;48.106;11.544;2023-05-07T20:29:51;4.45;;;4.10;;
14096;SDS011;7125;48.106;11.544;2023-05-07T20:32:21;5.22;;;4.57;;
14096;SDS011;7125;48.106;11.544;2023-05-07T20:34:51;5.55;;;5.03;;
14096;SDS011;7125;48.106;11.544;2023-05-07T20:37:24;6.03;;;4.70;;
14096;SDS011;7125;48.106;11.544;2023-05-07T20:39:53;5.82;;;5.43;;
14096;SDS011;7125;48.106;11.544;2023-05-07T20:42:22;5.55;;;5.05;;
14096;SDS011;7125;48.106;11.544;2023-05-07T20:44:54;5.80;;;5.20;;
14096;SDS011;7125;48.106;11.544;2023-05-07T20:47:27;6.10;;;5.53;;
14096;SDS011;7125;48.106;11.544;2023-05-07T20:49:59;4.97;;;4.60;;
14096;SDS011;7125;48.106;11.544;2023-05-07T20:52:41;7.60;;;5.47;;
14096;SDS011;7125;48.106;11.544;2023-05-07T20:55:09;7.22;;;6.20;;
14096;SDS011;7125;48.106;11.544;2023-05-07T20:57:38;5.18;;;4.72;;
14096;SDS011;7125;48.106;11.544;2023-05-07T21:00:06;5.72;;;4.97;;
14096;SDS011;7125;48.106;11.544;2023-05-07T21:02:35;5.55;;;5.05;;
14096;SDS011;7125;48.106;11.544;2023-05-07T21:05:04;5.90;;;4.93;;
14096;SDS011;7125;48.106;11.544;2023-05-07T21:07:35;6.80;;;5.90;;
14096;SDS011;7125;48.106;11.544;2023-05-07T21:10:09;6.25;;;5.05;;
14096;SDS011;7125;48.106;11.544;2023-05-07T21:12:37;6.03;;;5.53;;
14096;SDS011;7125;48.106;11.544;2023-05-07T21:15:06;5.72;;;5.22;;
14096;SDS011;7125;48.106;11.544;2023-05-07T21:17:40;5.97;;;5.47;;
14096;SDS011;7125;48.106;11.544;2023-05-07T21:20:08;6.10;;;5.57;;
14096;SDS011;7125;48.106;11.544;2023-05-07T21:22:36;6.95;;;6.43;;
14096;SDS011;7125;48.106;11.544;2023-05-07T21:25:04;5.32;;;4.93;;
14096;SDS011;7125;48.106;11.544;2023-05-07T21:27:32;5.57;;;5.07;;
14096;SDS011;7125;48.106;11.544;2023-05-07T21:30:00;6.25;;;5.75;;
14096;SDS011;7125;48.106;11.544;2023-05-07T21:32:29;5.40;;;4.90;;
14096;SDS011;7125;48.106;11.544;2023-05-07T21:35:01;7.18;;;6.38;;
14096;SDS011;7125;48.106;11.544;2023-05-07T21:37:42;6.57;;;5.90;;
14096;SDS011;7125;48.106;11.544;2023-05-07T21:40:10;6.43;;;5.72;;
14096;SDS011;7125;48.106;11.544;2023-05-07T21:42:39;6.95;;;6.38;;
14096;SDS011;7125;48.106;11.544;2023-05-07T21:45:07;7.20;;;6.68;;
14096;SDS011;7125;48.106;11.544;2023-05-07T21:47:36;7.90;;;6.50;;
14096;SDS011;7125;48.106;11.544;2023-05-07T21:50:14;7.35;;;6.75;;
14096;SDS011;7125;48.106;11.544;2023-05-07T21:52:48;7.50;;;6.13;;
14096;SDS011;7125;48.106;11.544;2023-05-07T21:55:16;6.97;;;6.38;;
14096;SDS011;7125;48.106;11.544;2023-05-07T21:57:46;8.18;;;7.30;;
14096;SDS011;7125;48.106;11.544;2023-05-07T22:00:14;7.97;;;7.20;;
14096;SDS011;7125;48.106;11.544;2023-05-07T22:02:41;6.80;;;6.20;;
14096;SDS011;7125;48.106;11.544;2023-05-07T22:05:11;6.80;;;6.20;;
14096;SDS011;7125;48.106;11.544;2023-05-07T22:07:44;6.65;;;6.05;;
14096;SDS011;7125;48.106;11.544;2023-05-07T22:10:13;8.10;;;7.38;;
14096;SDS011;7125;48.106;11.544;2023-05-07T22:12:46;7.53;;;6.78;;
14096;SDS011;7125;48.106;11.544;2023-05-07T22:15:13;8.73;;;6.72;;
14096;SDS011;7125;48.106;11.544;2023-05-07T22:17:56;8.20;;;7.43;;
14096;SDS011;7125;48.106;11.544;2023-05-07T22:20:27;6.75;;;6.05;;
14096;SDS011;7125;48.106;11.544;2023-05-07T22:22:55;8.68;;;7.00;;
14096;SDS011;7125;48.106;11.544;2023-05-07T22:25:23;7.35;;;6.63;;
14096;SDS011;7125;48.106;11.544;2023-05-07T22:27:53;7.53;;;6.82;;
14096;SDS011;7125;48.106;11.544;2023-05-07T22:30:20;7.55;;;6.40;;
14096;SDS011;7125;48.106;11.544;2023-05-07T22:32:50;7.30;;;6.60;;
14096;SDS011;7125;48.106;11.544;2023-05-07T22:35:19;7.97;;;7.28;;
14096;SDS011;7125;48.106;11.544;2023-05-07T22:37:52;8.35;;;7.55;;
14096;SDS011;7125;48.106;11.544;2023-05-07T22:40:20;8.13;;;6.60;;
14096;SDS011;7125;48.106;11.544;2023-05-07T22:42:49;7.25;;;6.57;;
14096;SDS011;7125;48.106;11.544;2023-05-07T22:45:17;9.52;;;7.00;;
14096;SDS011;7125;48.106;11.544;2023-05-07T22:47:46;9.10;;;8.20;;
14096;SDS011;7125;48.106;11.544;2023-05-07T22:50:15;8.13;;;7.32;;
14096;SDS011;7125;48.106;11.544;2023-05-07T22:52:43;8.55;;;7.82;;
14096;SDS011;7125;48.106;11.544;2023-05-07T22:55:13;8.60;;;7.80;;
14096;SDS011;7125;48.106;11.544;2023-05-07T22:57:41;7.88;;;7.05;;
14096;SDS011;7125;48.106;11.544;2023-05-07T23:00:09;7.95;;;7.25;;
14096;SDS011;7125;48.106;11.544;2023-05-07T23:02:37;9.05;;;8.07;;
14096;SDS011;7125;48.106;11.544;2023-05-07T23:05:05;7.43;;;6.78;;
14096;SDS011;7125;48.106;11.544;2023-05-07T23:07:34;8.13;;;7.32;;
14096;SDS011;7125;48.106;11.544;2023-05-07T23:10:08;8.10;;;7.38;;
14096;SDS011;7125;48.106;11.544;2023-05-07T23:12:37;7.50;;;6.75;;
14096;SDS011;7125;48.106;11.544;2023-05-07T23:15:05;7.38;;;6.78;;
14096;SDS011;7125;48.106;11.544;2023-05-07T23:17:33;8.25;;;7.45;;
14096;SDS011;7125;48.106;11.544;2023-05-07T23:20:02;8.80;;;7.95;;
14096;SDS011;7125;48.106;11.544;2023-05-07T23:22:29;7.97;;;7.28;;
14096;SDS011;7125;48.106;11.544;2023-05-07T23:24:58;7.88;;;7.20;;
14096;SDS011;7125;48.106;11.544;2023-05-07T23:27:29;7.97;;;7.25;;
14096;SDS011;7125;48.106;11.544;2023-05-07T23:29:59;7.90;;;7.13;;
14096;SDS011;7125;48.106;11.544;2023-05-07T23:32:29;8.80;;;7.40;;
14096;SDS011;7125;48.106;11.544;2023-05-07T23:35:00;9.32;;;8.38;;
14096;SDS011;7125;48.106;11.544;2023-05-07T23:37:28;7.95;;;7.25;;
14096;SDS011;7125;48.106;11.544;2023-05-07T23:39:56;8.50;;;7.70;;
14096;SDS011;7125;48.106;11.544;2023-05-07T23:42:23;9.10;;;7.00;;
14096;SDS011;7125;48.106;11.544;2023-05-07T23:44:51;9.00;;;8.13;;